createdAt,value
2018-06-02T00:02:17.322Z,4.40
2018-06-02T00:04:44.864Z,4.17
2018-06-02T00:07:12.427Z,3.70
2018-06-02T00:09:39.968Z,3.80
2018-06-02T00:12:08.313Z,3.80
2018-06-02T00:14:35.874Z,3.93
2018-06-02T00:17:03.447Z,5.90
2018-06-02T00:19:30.989Z,4.93
2018-06-02T00:21:58.564Z,5.23
2018-06-02T00:24:26.878Z,4.47
2018-06-02T00:26:54.445Z,5.27
2018-06-02T00:29:21.988Z,5.13
2018-06-02T00:31:50.323Z,5.17
2018-06-02T00:34:17.874Z,4.47
2018-06-02T00:36:45.455Z,5.77
2018-06-02T00:39:12.993Z,4.60
2018-06-02T00:41:40.547Z,6.23
2018-06-02T00:44:08.130Z,6.00
2018-06-02T00:46:35.675Z,5.97
2018-06-02T00:49:03.250Z,6.17
2018-06-02T00:51:30.794Z,6.43
2018-06-02T00:53:58.365Z,5.63
2018-06-02T00:56:25.917Z,6.37
2018-06-02T00:58:53.486Z,7.90
2018-06-02T01:01:21.034Z,12.47
2018-06-02T01:03:48.606Z,15.13
2018-06-02T01:06:16.155Z,15.27
2018-06-02T01:08:43.742Z,15.60
2018-06-02T01:11:11.290Z,14.97
2018-06-02T01:13:38.866Z,14.00
2018-06-02T01:16:06.417Z,12.43
2018-06-02T01:18:34.001Z,13.87
2018-06-02T01:21:01.557Z,12.37
2018-06-02T01:23:29.138Z,12.67
2018-06-02T01:25:57.460Z,11.30
2018-06-02T01:28:25.037Z,12.03
2018-06-02T01:30:52.581Z,14.90
2018-06-02T01:33:20.148Z,16.77
2018-06-02T01:35:47.738Z,15.27
2018-06-02T01:38:20.183Z,16.47
2018-06-02T01:40:47.738Z,16.33
2018-06-02T01:43:15.329Z,17.43
2018-06-02T01:45:42.882Z,16.20
2018-06-02T01:48:10.470Z,17.20
2018-06-02T01:50:38.795Z,17.17
2018-06-02T01:53:06.375Z,17.67
2018-06-02T01:55:33.945Z,18.07
2018-06-02T01:58:01.528Z,19.40
2018-06-02T02:00:29.069Z,17.67
2018-06-02T02:02:56.646Z,17.67
2018-06-02T02:05:24.194Z,15.87
2018-06-02T02:07:51.772Z,18.87
2018-06-02T02:10:20.090Z,17.53
2018-06-02T02:12:47.669Z,18.50
2018-06-02T02:15:15.210Z,18.27
2018-06-02T02:17:42.769Z,17.70
2018-06-02T02:20:10.931Z,18.87
2018-06-02T02:22:38.490Z,18.37
2018-06-02T02:25:06.077Z,19.17
2018-06-02T02:27:33.623Z,18.50
2018-06-02T02:30:01.202Z,18.80
2018-06-02T02:32:28.760Z,18.40
2018-06-02T02:34:56.338Z,18.23
2018-06-02T02:37:23.894Z,19.17
2018-06-02T02:39:51.474Z,17.47
2018-06-02T02:42:19.018Z,18.63
2018-06-02T02:44:46.598Z,16.70
2018-06-02T02:47:15.649Z,18.83
2018-06-02T02:49:43.213Z,18.40
2018-06-02T02:52:10.755Z,17.63
2018-06-02T02:54:38.348Z,16.83
2018-06-02T02:57:05.906Z,17.47
2018-06-02T02:59:33.492Z,16.23
2018-06-02T03:02:01.047Z,15.30
2018-06-02T03:04:28.614Z,15.77
2018-06-02T03:06:56.167Z,16.07
2018-06-02T03:09:23.737Z,17.17
2018-06-02T03:11:51.286Z,17.93
2018-06-02T03:14:18.884Z,16.67
2018-06-02T03:16:47.204Z,16.67
2018-06-02T03:19:14.770Z,19.27
2018-06-02T03:21:42.319Z,18.77
2018-06-02T03:24:09.891Z,18.10
2018-06-02T03:26:37.446Z,18.63
2018-06-02T03:29:05.028Z,19.10
2018-06-02T03:31:32.567Z,20.33
2018-06-02T03:34:00.147Z,17.93
2018-06-02T03:36:27.706Z,19.33
2018-06-02T03:38:55.277Z,20.17
2018-06-02T03:41:22.817Z,18.87
2018-06-02T03:43:50.388Z,20.67
2018-06-02T03:46:17.937Z,18.93
2018-06-02T03:48:45.505Z,18.87
2018-06-02T03:51:13.061Z,17.30
2018-06-02T03:53:40.630Z,19.90
2018-06-02T03:56:08.184Z,17.97
2018-06-02T03:58:35.753Z,21.13
2018-06-02T04:01:03.302Z,16.57
2018-06-02T04:03:30.842Z,19.87
2018-06-02T04:05:58.421Z,21.17
2018-06-02T04:08:25.963Z,21.53
2018-06-02T04:10:53.538Z,21.20
2018-06-02T04:13:21.081Z,19.53
2018-06-02T04:15:48.696Z,19.50
2018-06-02T04:18:16.226Z,19.40
2018-06-02T04:20:43.809Z,18.73
2018-06-02T04:23:11.386Z,19.57
2018-06-02T04:25:39.722Z,19.63
2018-06-02T04:28:07.278Z,17.90
2018-06-02T04:30:34.847Z,19.20
2018-06-02T04:35:37.031Z,18.20
2018-06-02T04:38:04.581Z,17.67
2018-06-02T04:40:32.155Z,17.83
2018-06-02T04:42:59.706Z,18.47
2018-06-02T04:45:27.290Z,17.80
2018-06-02T04:47:54.846Z,17.60
2018-06-02T04:50:22.427Z,16.13
2018-06-02T04:52:49.974Z,14.37
2018-06-02T04:55:18.322Z,17.03
2018-06-02T04:57:45.881Z,16.33
2018-06-02T05:00:13.445Z,15.00
2018-06-02T05:02:40.998Z,15.83
2018-06-02T05:05:08.575Z,15.90
2018-06-02T05:07:36.126Z,16.53
2018-06-02T05:10:03.711Z,17.90
2018-06-02T05:12:31.282Z,18.67
2018-06-02T05:14:59.615Z,18.40
2018-06-02T05:17:27.158Z,18.83
2018-06-02T05:19:54.733Z,17.67
2018-06-02T05:22:22.276Z,18.37
2018-06-02T05:24:49.859Z,18.57
2018-06-02T05:27:17.413Z,19.20
2018-06-02T05:29:45.083Z,19.50
2018-06-02T05:32:12.639Z,17.70
2018-06-02T05:34:40.206Z,16.50
2018-06-02T05:37:07.750Z,15.63
2018-06-02T05:39:35.317Z,15.37
2018-06-02T05:42:02.871Z,14.70
2018-06-02T05:44:30.442Z,14.37
2018-06-02T05:46:57.993Z,14.63
2018-06-02T05:49:25.532Z,11.50
2018-06-02T05:51:53.878Z,12.57
2018-06-02T05:54:21.426Z,12.00
2018-06-02T05:56:48.998Z,11.40
2018-06-02T05:59:16.553Z,10.57
2018-06-02T06:01:44.117Z,9.90
2018-06-02T06:04:12.455Z,10.30
2018-06-02T06:06:40.034Z,10.77
2018-06-02T06:09:07.575Z,10.53
2018-06-02T06:11:35.151Z,10.30
2018-06-02T06:14:02.685Z,9.93
2018-06-02T06:16:30.255Z,8.60
2018-06-02T06:18:57.793Z,8.83
2018-06-02T06:21:26.131Z,8.67
2018-06-02T06:23:53.671Z,8.80
2018-06-02T06:26:21.247Z,9.17
2018-06-02T06:28:48.790Z,8.83
2018-06-02T06:31:16.382Z,9.53
2018-06-02T06:33:43.931Z,8.43
2018-06-02T06:36:11.517Z,8.33
2018-06-02T06:38:39.079Z,9.17
2018-06-02T06:41:06.646Z,8.90
2018-06-02T06:43:34.961Z,7.80
2018-06-02T06:46:02.541Z,8.60
2018-06-02T06:48:30.095Z,8.37
2018-06-02T06:50:57.671Z,8.90
2018-06-02T06:53:25.213Z,8.77
2018-06-02T06:55:52.788Z,7.80
2018-06-02T06:58:20.335Z,8.67
2018-06-02T07:00:47.905Z,7.93
2018-06-02T07:03:15.450Z,7.40
2018-06-02T07:05:43.027Z,8.43
2018-06-02T07:08:10.573Z,7.30
2018-06-02T07:10:38.145Z,8.97
2018-06-02T07:13:05.691Z,8.80
2018-06-02T07:15:33.345Z,7.43
2018-06-02T07:18:00.905Z,7.67
2018-06-02T07:20:28.502Z,6.73
2018-06-02T07:22:56.050Z,7.77
2018-06-02T07:25:23.590Z,7.67
2018-06-02T07:27:51.178Z,8.03
2018-06-02T07:30:18.726Z,7.27
2018-06-02T07:32:46.290Z,7.33
2018-06-02T07:35:13.829Z,22.10
2018-06-02T07:37:41.406Z,8.40
2018-06-02T07:40:08.964Z,6.17
2018-06-02T07:42:36.539Z,6.80
2018-06-02T07:45:04.089Z,6.13
2018-06-02T07:47:31.649Z,5.67
2018-06-02T07:49:59.278Z,5.87
2018-06-02T07:52:26.792Z,6.30
2018-06-02T07:54:54.335Z,6.33
2018-06-02T07:57:21.898Z,5.50
2018-06-02T07:59:49.434Z,6.00
2018-06-02T08:02:17.004Z,5.60
2018-06-02T08:04:44.547Z,5.60
2018-06-02T08:07:12.153Z,5.10
2018-06-02T08:09:39.699Z,4.80
2018-06-02T08:12:07.273Z,5.17
2018-06-02T08:14:34.814Z,5.03
2018-06-02T08:17:02.387Z,5.13
2018-06-02T08:19:29.930Z,4.07
2018-06-02T08:21:57.499Z,4.93
2018-06-02T08:24:25.035Z,5.00
2018-06-02T08:26:52.612Z,5.57
2018-06-02T08:29:20.153Z,6.50
2018-06-02T08:31:47.720Z,6.33
2018-06-02T08:34:15.275Z,6.07
2018-06-02T08:36:43.694Z,5.23
2018-06-02T08:39:11.248Z,4.60
2018-06-02T08:41:38.823Z,3.77
2018-06-02T08:44:06.370Z,4.17
2018-06-02T08:46:33.942Z,4.80
2018-06-02T08:49:01.483Z,4.53
2018-06-02T08:51:29.053Z,3.90
2018-06-02T08:53:56.591Z,3.70
2018-06-02T08:56:24.169Z,3.57
2018-06-02T08:58:51.721Z,3.20
2018-06-02T09:01:19.281Z,3.70
2018-06-02T09:03:46.846Z,3.43
2018-06-02T09:06:14.389Z,3.50
2018-06-02T09:08:41.965Z,3.20
2018-06-02T09:11:09.506Z,3.60
2018-06-02T09:13:37.071Z,3.20
2018-06-02T09:16:04.609Z,3.53
2018-06-02T09:18:32.183Z,3.93
2018-06-02T09:20:59.726Z,3.40
2018-06-02T09:23:28.054Z,3.67
2018-06-02T09:25:55.600Z,3.60
2018-06-02T09:28:23.157Z,3.57
2018-06-02T09:30:50.715Z,3.80
2018-06-02T09:33:18.280Z,3.10
2018-06-02T09:35:45.826Z,3.30
2018-06-02T09:38:13.397Z,2.73
2018-06-02T09:40:41.194Z,3.37
2018-06-02T09:43:08.769Z,2.83
2018-06-02T09:45:37.094Z,3.07
2018-06-02T09:48:04.662Z,3.53
2018-06-02T09:50:32.220Z,2.90
2018-06-02T09:52:59.782Z,2.70
2018-06-02T09:55:27.336Z,2.90
2018-06-02T09:57:54.901Z,3.17
2018-06-02T10:00:22.443Z,3.93
2018-06-02T10:02:50.019Z,3.43
2018-06-02T10:05:17.583Z,3.00
2018-06-02T10:07:45.153Z,3.30
2018-06-02T10:10:12.690Z,3.33
2018-06-02T10:12:40.255Z,3.63
2018-06-02T10:15:07.794Z,3.43
2018-06-02T10:17:36.125Z,3.10
2018-06-02T10:20:03.670Z,3.83
2018-06-02T10:22:31.239Z,2.90
2018-06-02T10:24:58.791Z,2.77
2018-06-02T10:27:26.360Z,3.37
2018-06-02T10:29:53.893Z,3.30
2018-06-02T10:32:21.465Z,3.23
2018-06-02T10:34:49.031Z,3.10
2018-06-02T10:37:16.571Z,2.60
2018-06-02T10:39:44.136Z,2.97
2018-06-02T10:42:11.689Z,3.07
2018-06-02T10:44:39.287Z,2.70
2018-06-02T10:47:06.838Z,3.20
2018-06-02T10:49:34.402Z,2.70
2018-06-02T10:52:01.946Z,3.33
2018-06-02T10:54:29.517Z,2.83
2018-06-02T10:56:57.067Z,3.03
2018-06-02T10:59:24.631Z,2.73
2018-06-02T11:01:52.167Z,3.00
2018-06-02T11:04:19.729Z,2.60
2018-06-02T11:06:47.269Z,2.70
2018-06-02T11:09:15.602Z,2.87
2018-06-02T11:11:43.145Z,3.03
2018-06-02T11:14:10.708Z,2.60
2018-06-02T11:16:38.261Z,3.20
2018-06-02T11:19:05.842Z,2.17
2018-06-02T11:21:33.378Z,2.17
2018-06-02T11:24:00.970Z,2.47
2018-06-02T11:26:28.518Z,2.40
2018-06-02T11:28:56.090Z,2.50
2018-06-02T11:31:23.645Z,2.30
2018-06-02T11:33:51.214Z,2.60
2018-06-02T11:36:18.758Z,2.37
2018-06-02T11:38:46.318Z,2.87
2018-06-02T11:41:13.858Z,2.40
2018-06-02T11:43:41.436Z,2.40
2018-06-02T11:46:08.970Z,2.93
2018-06-02T11:48:36.533Z,2.33
2018-06-02T11:51:04.069Z,2.80
2018-06-02T11:53:32.418Z,2.80
2018-06-02T11:55:59.969Z,2.43
2018-06-02T11:58:27.534Z,2.80
2018-06-02T12:00:55.089Z,2.60
2018-06-02T12:03:22.666Z,3.37
2018-06-02T12:05:50.228Z,3.17
2018-06-02T12:08:17.775Z,3.40
2018-06-02T12:10:45.343Z,3.13
2018-06-02T12:13:12.879Z,3.17
2018-06-02T12:15:40.445Z,3.93
2018-06-02T12:18:08.007Z,3.90
2018-06-02T12:20:35.621Z,4.13
2018-06-02T12:23:03.129Z,4.03
2018-06-02T12:25:30.700Z,4.00
2018-06-02T12:27:58.247Z,3.60
2018-06-02T12:30:25.822Z,3.60
2018-06-02T12:32:53.366Z,3.07
2018-06-02T12:35:20.939Z,3.67
2018-06-02T12:37:48.482Z,3.93
2018-06-02T12:40:16.116Z,4.37
2018-06-02T12:42:43.630Z,4.00
2018-06-02T12:45:11.210Z,4.20
2018-06-02T12:47:38.756Z,4.30
2018-06-02T12:50:06.321Z,4.70
2018-06-02T12:52:33.866Z,3.70
2018-06-02T12:55:01.430Z,3.50
2018-06-02T12:57:28.970Z,3.10
2018-06-02T12:59:56.533Z,4.23
2018-06-02T13:02:24.065Z,3.00
2018-06-02T13:04:51.642Z,3.10
2018-06-02T13:07:19.192Z,4.00
2018-06-02T13:09:46.775Z,4.20
2018-06-02T13:12:14.318Z,3.80
2018-06-02T13:14:41.894Z,2.80
2018-06-02T13:17:09.433Z,1.80
2018-06-02T13:19:36.987Z,2.07
2018-06-02T13:22:04.553Z,1.60
2018-06-02T13:24:32.122Z,1.80
2018-06-02T13:26:59.690Z,2.00
2018-06-02T13:29:27.234Z,1.90
2018-06-02T13:31:54.810Z,2.37
2018-06-02T13:34:22.358Z,2.80
2018-06-02T13:36:49.921Z,2.40
2018-06-02T13:39:17.459Z,2.60
2018-06-02T13:41:45.787Z,2.20
2018-06-02T13:44:13.339Z,2.80
2018-06-02T13:46:40.922Z,2.90
2018-06-02T13:49:08.464Z,3.27
2018-06-02T13:51:36.040Z,3.13
2018-06-02T13:54:03.582Z,2.77
2018-06-02T13:56:31.160Z,3.20
2018-06-02T13:58:58.697Z,2.80
2018-06-02T14:01:26.279Z,3.10
2018-06-02T14:03:53.822Z,2.77
2018-06-02T14:06:21.389Z,2.93
2018-06-02T14:08:48.934Z,3.23
2018-06-02T14:11:16.484Z,4.30
2018-06-02T14:13:44.050Z,4.60
2018-06-02T14:16:11.594Z,4.60
2018-06-02T14:18:39.195Z,4.50
2018-06-02T14:21:06.723Z,3.50
2018-06-02T14:23:34.293Z,2.60
2018-06-02T14:26:01.826Z,2.97
2018-06-02T14:28:29.398Z,2.93
2018-06-02T14:30:56.999Z,2.80
2018-06-02T14:33:24.531Z,2.40
2018-06-02T14:35:52.077Z,3.80
2018-06-02T14:38:19.649Z,3.20
2018-06-02T14:40:47.189Z,3.00
2018-06-02T14:43:14.759Z,2.63
2018-06-02T14:45:42.305Z,3.13
2018-06-02T14:48:10.646Z,2.83
2018-06-02T14:50:38.186Z,2.70
2018-06-02T14:53:05.746Z,2.90
2018-06-02T14:55:33.317Z,2.83
2018-06-02T14:58:01.792Z,2.93
2018-06-02T15:00:29.367Z,3.20
2018-06-02T15:02:57.008Z,4.20
2018-06-02T15:05:24.591Z,3.13
2018-06-02T15:07:52.128Z,3.47
2018-06-02T15:10:19.697Z,3.17
2018-06-02T15:12:47.251Z,2.73
2018-06-02T15:15:14.821Z,2.63
2018-06-02T15:17:42.354Z,3.27
2018-06-02T15:20:09.925Z,3.90
2018-06-02T15:22:37.470Z,4.87
2018-06-02T15:25:05.065Z,4.80
2018-06-02T15:27:32.591Z,5.53
2018-06-02T15:30:00.151Z,5.83
2018-06-02T15:32:27.698Z,5.13
2018-06-02T15:34:55.270Z,4.97
2018-06-02T15:37:22.817Z,5.13
2018-06-02T15:39:51.147Z,4.57
2018-06-02T15:42:18.684Z,5.33
2018-06-02T15:44:46.251Z,4.90
2018-06-02T15:47:13.906Z,4.70
2018-06-02T15:49:41.482Z,4.87
2018-06-02T15:52:09.023Z,4.60
2018-06-02T15:54:36.582Z,4.37
2018-06-02T15:57:04.153Z,4.30
2018-06-02T15:59:31.705Z,3.80
2018-06-02T16:01:59.278Z,4.50
2018-06-02T16:04:26.826Z,4.23
2018-06-02T16:06:54.402Z,3.70
2018-06-02T16:09:21.941Z,4.43
2018-06-02T16:11:49.510Z,4.00
2018-06-02T16:14:17.046Z,4.30
2018-06-02T16:16:44.618Z,3.93
2018-06-02T16:19:12.167Z,4.23
2018-06-02T16:21:39.738Z,3.80
2018-06-02T16:24:07.299Z,3.77
2018-06-02T16:26:34.858Z,4.03
2018-06-02T16:29:02.419Z,4.20
2018-06-02T16:31:29.994Z,3.67
2018-06-02T16:33:57.540Z,3.57
2018-06-02T16:36:25.116Z,3.97
2018-06-02T16:38:52.659Z,3.30
2018-06-02T16:41:20.239Z,3.30
2018-06-02T16:43:47.782Z,3.33
2018-06-02T16:46:15.354Z,2.83
2018-06-02T16:48:42.897Z,2.63
2018-06-02T16:51:10.473Z,2.57
2018-06-02T16:53:38.010Z,2.40
2018-06-02T16:56:06.347Z,2.60
2018-06-02T16:58:33.898Z,2.60
2018-06-02T17:01:01.478Z,2.80
2018-06-02T17:03:29.026Z,2.60
2018-06-02T17:05:56.609Z,2.47
2018-06-02T17:08:24.196Z,2.90
2018-06-02T17:10:51.739Z,2.40
2018-06-02T17:13:20.098Z,2.20
2018-06-02T17:15:47.639Z,2.50
2018-06-02T17:18:15.219Z,2.33
2018-06-02T17:20:42.769Z,2.13
2018-06-02T17:23:10.342Z,3.00
2018-06-02T17:25:37.884Z,2.70
2018-06-02T17:28:05.450Z,2.27
2018-06-02T17:30:32.988Z,2.53
2018-06-02T17:33:00.572Z,2.17
2018-06-02T17:35:28.109Z,2.00
2018-06-02T17:37:55.683Z,1.93
2018-06-02T17:40:23.222Z,2.13
2018-06-02T17:42:50.803Z,2.40
2018-06-02T17:45:18.348Z,2.10
2018-06-02T17:47:45.930Z,2.50
2018-06-02T17:50:13.466Z,2.00
2018-06-02T17:52:41.038Z,2.03
2018-06-02T17:55:08.576Z,2.30
2018-06-02T17:57:36.146Z,2.20
2018-06-02T18:00:03.690Z,2.20
2018-06-02T18:02:31.258Z,2.37
2018-06-02T18:04:58.792Z,2.60
2018-06-02T18:07:26.375Z,2.40
2018-06-02T18:09:53.924Z,2.77
2018-06-02T18:12:21.487Z,2.67
2018-06-02T18:14:49.049Z,2.30
2018-06-02T18:17:16.590Z,2.50
2018-06-02T18:19:44.931Z,2.43
2018-06-02T18:22:12.483Z,3.17
2018-06-02T18:24:40.053Z,2.87
2018-06-02T18:27:07.594Z,2.37
2018-06-02T18:29:35.170Z,2.63
2018-06-02T18:32:02.720Z,3.20
2018-06-02T18:34:30.290Z,3.07
2018-06-02T18:36:57.849Z,2.80
2018-06-02T18:39:25.480Z,3.57
2018-06-02T18:41:53.005Z,3.43
2018-06-02T18:44:21.333Z,3.63
2018-06-02T18:46:48.894Z,4.70
2018-06-02T18:49:16.471Z,3.60
2018-06-02T18:51:44.010Z,3.40
2018-06-02T18:54:11.587Z,3.30
2018-06-02T18:56:39.136Z,3.30
2018-06-02T18:59:06.694Z,3.60
2018-06-02T19:01:34.241Z,3.00
2018-06-02T19:04:01.828Z,3.17
2018-06-02T19:06:29.373Z,3.30
2018-06-02T19:08:56.946Z,2.80
2018-06-02T19:11:24.493Z,3.10
2018-06-02T19:13:52.063Z,3.20
2018-06-02T19:16:19.620Z,3.10
2018-06-02T19:18:47.206Z,3.23
2018-06-02T19:21:14.747Z,3.20
2018-06-02T19:23:42.315Z,2.93
2018-06-02T19:26:09.858Z,3.40
2018-06-02T19:28:37.434Z,3.37
2018-06-02T19:31:04.987Z,16.20
2018-06-02T19:33:32.560Z,5.43
2018-06-02T19:36:00.137Z,3.43
2018-06-02T19:38:27.697Z,3.33
2018-06-02T19:40:55.306Z,2.80
2018-06-02T19:43:23.982Z,2.83
2018-06-02T19:45:51.534Z,3.60
2018-06-02T19:48:19.878Z,3.60
2018-06-02T19:50:47.442Z,2.93
2018-06-02T19:53:14.998Z,3.60
2018-06-02T19:55:42.579Z,4.67
2018-06-02T19:58:10.910Z,3.70
2018-06-02T20:00:38.503Z,4.00
2018-06-02T20:03:06.061Z,4.40
2018-06-02T20:05:33.641Z,3.50
2018-06-02T20:08:01.968Z,3.53
2018-06-02T20:10:29.534Z,3.20
2018-06-02T20:12:57.082Z,2.73
2018-06-02T20:15:24.649Z,3.73
2018-06-02T20:17:52.182Z,3.57
2018-06-02T20:20:19.760Z,3.77
2018-06-02T20:22:47.308Z,3.40
2018-06-02T20:25:14.881Z,3.70
2018-06-02T20:27:42.428Z,3.57
2018-06-02T20:30:10.036Z,3.83
2018-06-02T20:32:37.573Z,3.50
2018-06-02T20:35:05.138Z,3.30
2018-06-02T20:37:32.677Z,4.00
2018-06-02T20:40:00.252Z,3.57
2018-06-02T20:42:27.853Z,3.97
2018-06-02T20:44:55.394Z,4.17
2018-06-02T20:47:22.949Z,3.70
2018-06-02T20:49:50.513Z,3.73
2018-06-02T20:52:18.063Z,3.83
2018-06-02T20:54:45.636Z,4.00
2018-06-02T20:57:13.191Z,3.00
2018-06-02T20:59:40.762Z,3.57
2018-06-02T21:02:08.307Z,4.30
2018-06-02T21:04:35.870Z,4.57
2018-06-02T21:07:03.434Z,4.73
2018-06-02T21:09:31.002Z,3.63
2018-06-02T21:11:58.545Z,3.03
2018-06-02T21:14:26.108Z,3.37
2018-06-02T21:16:53.663Z,4.30
2018-06-02T21:19:21.204Z,3.83
2018-06-02T21:21:48.770Z,4.53
2018-06-02T21:24:16.314Z,3.17
2018-06-02T21:26:43.886Z,2.97
2018-06-02T21:29:11.432Z,3.30
2018-06-02T21:31:39.007Z,3.23
2018-06-02T21:34:06.550Z,3.20
2018-06-02T21:36:34.873Z,3.40
2018-06-02T21:39:02.424Z,3.00
2018-06-02T21:41:30.002Z,3.50
2018-06-02T21:43:57.540Z,3.73
2018-06-02T21:46:25.106Z,4.40
2018-06-02T21:48:52.642Z,3.80
2018-06-02T21:51:20.205Z,4.37
2018-06-02T21:53:47.748Z,4.30
2018-06-02T21:56:16.074Z,4.10
2018-06-02T21:58:43.615Z,3.50
2018-06-02T22:01:11.183Z,4.30
2018-06-02T22:03:38.733Z,3.93
2018-06-02T22:06:06.297Z,3.87
2018-06-02T22:08:33.852Z,3.87
2018-06-02T22:11:01.419Z,3.27
2018-06-02T22:13:28.971Z,4.10
2018-06-02T22:15:56.535Z,3.80
2018-06-02T22:18:24.077Z,4.10
2018-06-02T22:20:51.651Z,4.20
2018-06-02T22:23:19.193Z,3.40
2018-06-02T22:25:47.563Z,3.70
2018-06-02T22:28:15.870Z,3.97
2018-06-02T22:30:43.446Z,3.90
2018-06-02T22:33:10.987Z,3.17
2018-06-02T22:35:38.557Z,3.70
2018-06-02T22:38:06.100Z,3.30
2018-06-02T22:40:33.668Z,4.30
2018-06-02T22:43:01.219Z,4.63
2018-06-02T22:45:28.784Z,4.23
2018-06-02T22:47:56.322Z,4.53
2018-06-02T22:50:24.620Z,4.20
2018-06-02T22:52:52.181Z,4.17
2018-06-02T22:55:19.721Z,3.90
2018-06-02T22:57:48.064Z,3.93
2018-06-02T23:00:19.022Z,3.80
2018-06-02T23:02:46.604Z,4.13
2018-06-02T23:05:14.180Z,3.80
2018-06-02T23:07:41.745Z,4.00
2018-06-02T23:10:09.705Z,4.10
2018-06-02T23:12:37.270Z,3.37
2018-06-02T23:15:04.815Z,3.30
2018-06-02T23:17:33.153Z,3.57
2018-06-02T23:20:00.691Z,3.43
2018-06-02T23:22:39.040Z,3.57
2018-06-02T23:25:06.586Z,3.70
2018-06-02T23:27:34.157Z,3.30
2018-06-02T23:30:01.719Z,3.07
2018-06-02T23:32:29.279Z,3.30
2018-06-02T23:34:57.592Z,3.70
2018-06-02T23:37:25.930Z,3.63
2018-06-02T23:39:53.486Z,4.07
2018-06-02T23:42:21.055Z,3.33
2018-06-02T23:44:48.586Z,3.20
2018-06-02T23:47:16.150Z,3.17
2018-06-02T23:49:43.696Z,3.50
2018-06-02T23:52:11.271Z,3.40
2018-06-02T23:54:38.810Z,3.63
2018-06-02T23:57:06.380Z,3.90
2018-06-02T23:59:33.928Z,4.17
